createdAt,value
2023-01-20T00:02:21.212Z,1.96
2023-01-20T00:04:52.294Z,1.97
2023-01-20T00:07:22.688Z,1.97
2023-01-20T00:09:58.332Z,1.95
2023-01-20T00:12:28.669Z,1.84
2023-01-20T00:14:58.974Z,1.89
2023-01-20T00:17:29.335Z,1.92
2023-01-20T00:19:59.579Z,1.92
2023-01-20T00:22:29.857Z,1.98
2023-01-20T00:25:02.797Z,2.00
2023-01-20T00:27:33.134Z,1.96
2023-01-20T00:30:03.403Z,1.99
2023-01-20T00:32:33.896Z,2.02
2023-01-20T00:35:04.171Z,2.09
2023-01-20T00:37:34.534Z,2.18
2023-01-20T00:40:09.147Z,1.99
2023-01-20T00:42:39.500Z,1.92
2023-01-20T00:45:11.575Z,1.92
2023-01-20T00:47:42.017Z,1.86
2023-01-20T00:50:14.031Z,1.79
2023-01-20T00:52:44.330Z,1.81
2023-01-20T00:55:17.525Z,1.70
2023-01-20T00:57:47.823Z,1.66
2023-01-20T01:00:19.594Z,1.77
2023-01-20T01:02:50.062Z,1.85
2023-01-20T01:05:20.373Z,1.83
2023-01-20T01:07:50.658Z,1.86
2023-01-20T01:10:23.662Z,1.93
2023-01-20T01:12:54.336Z,1.93
2023-01-20T01:15:24.718Z,1.83
2023-01-20T01:17:56.253Z,1.87
2023-01-20T01:20:27.145Z,1.91
2023-01-20T01:22:57.631Z,1.96
2023-01-20T01:25:31.029Z,2.02
2023-01-20T01:28:01.389Z,2.06
2023-01-20T01:30:31.857Z,2.09
2023-01-20T01:33:02.154Z,2.02
2023-01-20T01:35:32.470Z,1.92
2023-01-20T01:38:02.769Z,1.97
2023-01-20T01:40:35.734Z,2.01
2023-01-20T01:43:06.060Z,2.12
2023-01-20T01:45:36.791Z,2.24
2023-01-20T01:48:12.076Z,2.24
2023-01-20T01:50:48.591Z,2.26
2023-01-20T01:53:19.155Z,2.28
2023-01-20T01:55:57.395Z,2.37
2023-01-20T01:58:32.696Z,2.38
2023-01-20T02:01:03.632Z,2.29
2023-01-20T02:03:52.499Z,2.24
2023-01-20T02:06:24.584Z,2.24
2023-01-20T02:08:55.393Z,2.28
2023-01-20T02:11:28.433Z,2.36
2023-01-20T02:13:59.291Z,2.40
2023-01-20T02:16:43.445Z,2.33
2023-01-20T02:19:50.863Z,2.28
2023-01-20T02:22:34.615Z,2.25
2023-01-20T02:25:47.699Z,2.25
2023-01-20T02:29:08.386Z,2.30
2023-01-20T02:32:14.473Z,2.35
2023-01-20T02:34:55.110Z,2.29
2023-01-20T02:37:29.959Z,2.14
2023-01-20T02:40:17.610Z,2.01
2023-01-20T02:42:55.021Z,2.01
2023-01-20T02:45:30.007Z,1.95
2023-01-20T02:48:10.178Z,1.99
2023-01-20T02:50:55.198Z,2.00
2023-01-20T02:53:30.668Z,1.88
2023-01-20T02:56:01.418Z,1.86
2023-01-20T02:58:38.240Z,1.90
2023-01-20T03:01:14.071Z,1.87
2023-01-20T03:03:49.764Z,1.94
2023-01-20T03:06:26.904Z,2.01
2023-01-20T03:09:02.326Z,2.01
2023-01-20T03:11:37.375Z,2.03
2023-01-20T03:14:11.943Z,2.18
2023-01-20T03:16:43.146Z,2.33
2023-01-20T03:19:15.883Z,2.40
2023-01-20T03:21:46.740Z,2.37
2023-01-20T03:24:17.207Z,2.29
2023-01-20T03:26:47.655Z,2.22
2023-01-20T03:29:18.506Z,2.15
2023-01-20T03:31:54.100Z,2.23
2023-01-20T03:34:30.270Z,2.22
2023-01-20T03:37:01.668Z,2.19
2023-01-20T03:39:32.726Z,2.28
2023-01-20T03:42:10.936Z,2.27
2023-01-20T03:45:02.114Z,2.34
2023-01-20T03:47:52.642Z,2.21
2023-01-20T03:50:37.683Z,2.18
2023-01-20T03:53:24.551Z,2.20
2023-01-20T03:56:04.829Z,2.21
2023-01-20T03:58:38.265Z,2.17
2023-01-20T04:01:17.747Z,2.21
2023-01-20T04:03:52.176Z,2.18
2023-01-20T04:06:28.912Z,2.20
2023-01-20T04:09:04.355Z,2.15
2023-01-20T04:11:35.141Z,2.14
2023-01-20T04:14:05.878Z,2.16
2023-01-20T04:16:36.595Z,2.21
2023-01-20T04:19:07.539Z,2.27
2023-01-20T04:21:46.718Z,2.35
2023-01-20T04:24:26.080Z,2.38
2023-01-20T04:26:56.366Z,2.45
2023-01-20T04:29:26.655Z,2.34
2023-01-20T04:32:02.364Z,2.37
2023-01-20T04:34:33.186Z,2.43
2023-01-20T04:37:06.172Z,2.48
2023-01-20T04:39:36.448Z,2.52
2023-01-20T04:42:07.790Z,2.55
2023-01-20T04:44:38.195Z,2.59
2023-01-20T04:47:08.897Z,2.67
2023-01-20T04:49:39.665Z,2.64
2023-01-20T04:52:12.669Z,2.62
2023-01-20T04:54:53.268Z,2.60
2023-01-20T04:57:23.866Z,2.46
2023-01-20T04:59:54.374Z,2.45
2023-01-20T05:02:24.772Z,2.45
2023-01-20T05:04:55.184Z,2.53
2023-01-20T05:07:28.149Z,2.66
2023-01-20T05:09:58.385Z,2.67
2023-01-20T05:12:28.667Z,2.69
2023-01-20T05:14:58.924Z,2.73
2023-01-20T05:17:29.276Z,2.82
2023-01-20T05:19:59.610Z,2.79
2023-01-20T05:22:33.304Z,2.75
2023-01-20T05:25:03.912Z,2.77
2023-01-20T05:27:34.347Z,2.80
2023-01-20T05:30:04.939Z,2.74
2023-01-20T05:32:35.544Z,2.77
2023-01-20T05:35:05.967Z,2.82
2023-01-20T05:37:42.445Z,2.80
2023-01-20T05:40:14.916Z,2.82
2023-01-20T05:42:45.276Z,2.76
2023-01-20T05:45:15.867Z,2.76
2023-01-20T05:47:46.523Z,2.82
2023-01-20T05:50:16.814Z,2.88
2023-01-20T05:52:49.806Z,2.89
2023-01-20T05:55:20.361Z,2.86
2023-01-20T05:57:50.761Z,2.86
2023-01-20T06:00:22.878Z,2.91
2023-01-20T06:02:53.194Z,2.94
2023-01-20T06:05:23.493Z,2.89
2023-01-20T06:07:58.640Z,2.86
2023-01-20T06:10:30.219Z,2.81
2023-01-20T06:13:00.655Z,2.76
2023-01-20T06:15:31.286Z,2.68
2023-01-20T06:18:01.644Z,2.63
2023-01-20T06:20:31.895Z,2.66
2023-01-20T06:23:04.827Z,2.67
2023-01-20T06:25:35.122Z,2.72
2023-01-20T06:28:05.733Z,2.71
2023-01-20T06:30:36.166Z,2.64
2023-01-20T06:33:10.698Z,2.56
2023-01-20T06:35:41.171Z,2.53
2023-01-20T06:38:14.067Z,2.60
2023-01-20T06:40:44.418Z,2.45
2023-01-20T06:43:14.738Z,2.51
2023-01-20T06:45:45.203Z,2.51
2023-01-20T06:48:15.586Z,2.49
2023-01-20T06:50:45.865Z,2.43
2023-01-20T06:53:18.787Z,2.40
2023-01-20T06:55:57.651Z,2.43
2023-01-20T06:58:29.186Z,2.49
2023-01-20T07:01:01.038Z,2.34
2023-01-20T07:03:31.402Z,2.41
2023-01-20T07:06:04.206Z,2.38
2023-01-20T07:08:37.079Z,2.35
2023-01-20T07:11:07.773Z,2.38
2023-01-20T07:13:38.144Z,2.50
2023-01-20T07:16:11.092Z,2.58
2023-01-20T07:18:43.337Z,2.57
2023-01-20T07:21:14.570Z,2.52
2023-01-20T07:23:48.268Z,2.44
2023-01-20T07:26:21.580Z,2.43
2023-01-20T07:28:52.219Z,2.51
2023-01-20T07:31:25.438Z,2.53
2023-01-20T07:33:57.779Z,2.47
2023-01-20T07:36:28.448Z,2.45
2023-01-20T07:39:01.421Z,2.47
2023-01-20T07:41:31.748Z,2.46
2023-01-20T07:44:02.292Z,2.51
2023-01-20T07:46:32.616Z,2.53
2023-01-20T07:49:02.921Z,2.50
2023-01-20T07:51:33.236Z,2.50
2023-01-20T07:54:06.379Z,2.48
2023-01-20T07:56:36.737Z,2.43
2023-01-20T07:59:07.194Z,2.49
2023-01-20T08:01:37.656Z,2.56
2023-01-20T08:04:08.108Z,2.56
2023-01-20T08:06:38.503Z,2.61
2023-01-20T08:09:14.766Z,2.69
2023-01-20T08:11:45.106Z,2.68
2023-01-20T08:14:15.522Z,2.70
2023-01-20T08:16:45.898Z,2.71
2023-01-20T08:19:16.236Z,2.76
2023-01-20T08:21:46.514Z,2.78
2023-01-20T08:24:19.424Z,2.76
2023-01-20T08:26:49.736Z,2.81
2023-01-20T08:29:20.274Z,2.85
2023-01-20T08:31:50.700Z,2.92
2023-01-20T08:34:21.633Z,3.04
2023-01-20T08:36:54.109Z,3.10
2023-01-20T08:39:27.272Z,3.11
2023-01-20T08:41:57.608Z,3.14
2023-01-20T08:44:31.007Z,3.18
2023-01-20T08:47:03.226Z,3.19
2023-01-20T08:49:33.549Z,3.13
2023-01-20T08:52:04.210Z,3.19
2023-01-20T08:54:37.300Z,3.26
2023-01-20T08:57:08.027Z,3.29
2023-01-20T08:59:38.399Z,3.32
2023-01-20T09:02:08.889Z,3.39
2023-01-20T09:04:40.132Z,3.38
2023-01-20T09:07:10.239Z,3.46
2023-01-20T09:09:43.339Z,3.50
2023-01-20T09:12:13.860Z,3.54
2023-01-20T09:14:44.399Z,3.56
2023-01-20T09:17:14.863Z,3.61
2023-01-20T09:19:45.304Z,3.66
2023-01-20T09:22:16.643Z,3.81
2023-01-20T09:24:49.698Z,3.85
2023-01-20T09:27:19.962Z,3.92
2023-01-20T09:29:50.723Z,3.92
2023-01-20T09:32:21.009Z,3.90
2023-01-20T09:34:51.341Z,3.95
2023-01-20T09:37:34.017Z,3.91
2023-01-20T09:40:32.229Z,3.93
2023-01-20T09:43:29.174Z,3.92
2023-01-20T09:46:06.095Z,3.91
2023-01-20T09:49:00.708Z,3.97
2023-01-20T09:51:53.734Z,3.95
2023-01-20T09:54:33.472Z,3.76
2023-01-20T09:57:10.190Z,3.79
2023-01-20T09:59:47.296Z,3.81
2023-01-20T10:02:25.436Z,3.70
2023-01-20T10:05:02.162Z,3.58
2023-01-20T10:07:40.782Z,3.57
2023-01-20T10:10:17.855Z,3.63
2023-01-20T10:12:56.289Z,3.66
2023-01-20T10:15:30.941Z,3.53
2023-01-20T10:18:05.965Z,3.51
2023-01-20T10:20:45.618Z,3.62
2023-01-20T10:23:24.661Z,3.67
2023-01-20T10:26:00.122Z,3.64
2023-01-20T10:28:38.756Z,3.58
2023-01-20T10:31:09.402Z,3.62
2023-01-20T10:33:42.565Z,3.60
2023-01-20T10:36:21.297Z,3.61
2023-01-20T10:38:58.878Z,3.67
2023-01-20T10:41:40.888Z,3.72
2023-01-20T10:44:16.747Z,3.79
2023-01-20T10:47:19.695Z,3.76
2023-01-20T10:50:28.569Z,3.89
2023-01-20T10:53:34.113Z,3.93
2023-01-20T10:56:26.998Z,3.96
2023-01-20T10:58:57.996Z,4.06
2023-01-20T11:01:31.215Z,4.03
2023-01-20T11:04:01.550Z,4.00
2023-01-20T11:06:32.046Z,4.01
2023-01-20T11:09:24.138Z,3.89
2023-01-20T11:11:55.719Z,3.94
2023-01-20T11:14:26.529Z,4.01
2023-01-20T11:17:05.875Z,4.11
2023-01-20T11:19:52.693Z,4.06
2023-01-20T11:22:32.221Z,4.07
2023-01-20T11:25:04.211Z,4.21
2023-01-20T11:27:43.669Z,4.20
2023-01-20T11:30:29.690Z,4.12
2023-01-20T11:33:22.080Z,4.04
2023-01-20T11:36:04.187Z,4.05
2023-01-20T11:38:44.238Z,3.90
2023-01-20T11:41:23.306Z,3.87
2023-01-20T11:43:55.646Z,3.81
2023-01-20T11:46:30.456Z,3.81
2023-01-20T11:49:19.967Z,3.81
2023-01-20T11:51:53.866Z,3.83
2023-01-20T11:54:27.436Z,3.89
2023-01-20T11:57:01.729Z,3.95
2023-01-20T11:59:35.105Z,4.00
2023-01-20T12:02:27.518Z,4.08
2023-01-20T12:05:17.334Z,4.13
2023-01-20T12:07:50.629Z,4.24
2023-01-20T12:10:26.761Z,4.25
2023-01-20T12:13:01.970Z,4.27
2023-01-20T12:15:36.821Z,4.23
2023-01-20T12:18:18.491Z,4.27
2023-01-20T12:20:58.955Z,4.31
2023-01-20T12:23:46.014Z,4.44
2023-01-20T12:26:18.939Z,4.49
2023-01-20T12:29:05.390Z,4.48
2023-01-20T12:31:36.409Z,4.50
2023-01-20T12:34:10.041Z,4.52
2023-01-20T12:37:01.414Z,4.53
2023-01-20T12:40:00.147Z,4.53
2023-01-20T12:43:18.773Z,4.50
2023-01-20T12:46:03.461Z,4.58
2023-01-20T12:48:47.215Z,4.59
2023-01-20T12:51:36.329Z,4.73
2023-01-20T12:54:48.445Z,4.78
2023-01-20T12:57:33.094Z,4.89
2023-01-20T13:00:26.795Z,5.04
2023-01-20T13:03:32.990Z,5.12
2023-01-20T13:06:36.284Z,5.18
2023-01-20T13:09:27.352Z,5.13
2023-01-20T13:12:15.075Z,5.17
2023-01-20T13:14:48.775Z,5.19
2023-01-20T13:17:30.155Z,5.18
2023-01-20T13:20:02.445Z,5.22
2023-01-20T13:22:35.172Z,5.16
2023-01-20T13:25:09.448Z,5.08
2023-01-20T13:27:41.402Z,5.08
2023-01-20T13:30:44.579Z,4.97
2023-01-20T13:33:36.007Z,4.81
2023-01-20T13:36:20.002Z,4.76
2023-01-20T13:38:52.100Z,4.74
2023-01-20T13:41:56.051Z,4.75
2023-01-20T13:44:37.408Z,4.78
2023-01-20T13:47:10.115Z,4.85
2023-01-20T13:49:54.738Z,4.84
2023-01-20T13:53:18.391Z,4.87
2023-01-20T13:55:58.007Z,4.85
2023-01-20T13:58:33.017Z,4.89
2023-01-20T14:01:05.908Z,4.87
2023-01-20T14:03:37.932Z,4.79
2023-01-20T14:06:11.385Z,4.73
2023-01-20T14:08:45.248Z,4.65
2023-01-20T14:11:18.872Z,4.59
2023-01-20T14:13:59.688Z,4.58
2023-01-20T14:16:33.039Z,4.53
2023-01-20T14:19:17.845Z,4.48
2023-01-20T14:21:48.231Z,4.43
2023-01-20T14:24:35.572Z,4.40
2023-01-20T14:27:18.378Z,4.37
2023-01-20T14:29:53.954Z,4.29
2023-01-20T14:32:28.576Z,4.25
2023-01-20T14:34:59.952Z,4.19
2023-01-20T14:37:33.306Z,4.17
2023-01-20T14:40:09.946Z,4.10
2023-01-20T14:42:41.475Z,4.09
2023-01-20T14:45:26.745Z,4.04
2023-01-20T14:47:57.814Z,4.00
2023-01-20T14:50:28.895Z,3.98
2023-01-20T14:52:59.448Z,3.95
2023-01-20T14:55:35.650Z,3.90
2023-01-20T14:58:11.938Z,3.86
2023-01-20T15:00:49.690Z,3.83
2023-01-20T15:03:25.006Z,3.79
2023-01-20T15:05:59.522Z,3.71
2023-01-20T15:09:04.434Z,3.68
2023-01-20T15:11:36.984Z,3.65
2023-01-20T15:14:15.095Z,3.60
2023-01-20T15:16:53.692Z,3.57
2023-01-20T15:19:35.742Z,3.46
2023-01-20T15:22:23.246Z,3.45
2023-01-20T15:24:54.079Z,3.41
2023-01-20T15:27:34.510Z,3.42
2023-01-20T15:30:17.419Z,3.42
2023-01-20T15:32:51.759Z,3.41
2023-01-20T15:35:26.101Z,3.40
2023-01-20T15:37:56.915Z,3.40
2023-01-20T15:40:29.153Z,3.42
2023-01-20T15:42:59.622Z,3.41
2023-01-20T15:45:29.981Z,3.41
2023-01-20T15:48:05.281Z,3.39
2023-01-20T15:50:36.009Z,3.38
2023-01-20T15:53:06.599Z,3.37
2023-01-20T15:55:37.465Z,3.35
2023-01-20T15:58:25.794Z,3.33
2023-01-20T16:00:57.875Z,3.30
2023-01-20T16:03:35.046Z,3.30
2023-01-20T16:06:05.479Z,3.35
2023-01-20T16:08:40.322Z,3.32
2023-01-20T16:11:13.382Z,3.29
2023-01-20T16:13:44.509Z,3.27
2023-01-20T16:16:17.646Z,3.24
2023-01-20T16:18:51.296Z,3.23
2023-01-20T16:21:22.871Z,3.16
2023-01-20T16:23:53.134Z,3.18
2023-01-20T16:26:25.847Z,3.17
2023-01-20T16:28:59.381Z,3.14
2023-01-20T16:31:30.959Z,3.13
2023-01-20T16:34:04.510Z,3.12
2023-01-20T16:36:34.899Z,3.09
2023-01-20T16:39:05.344Z,3.05
2023-01-20T16:41:36.687Z,3.07
2023-01-20T16:44:07.725Z,3.09
2023-01-20T16:46:39.330Z,3.11
2023-01-20T16:49:12.298Z,3.11
2023-01-20T16:51:42.870Z,3.11
2023-01-20T16:54:13.320Z,3.11
2023-01-20T16:56:43.693Z,3.07
2023-01-20T16:59:14.197Z,3.00
2023-01-20T17:01:44.628Z,2.98
2023-01-20T17:04:17.613Z,2.91
2023-01-20T17:06:48.035Z,2.83
2023-01-20T17:09:18.347Z,2.84
2023-01-20T17:11:48.704Z,2.85
2023-01-20T17:14:19.191Z,2.86
2023-01-20T17:16:49.513Z,2.85
2023-01-20T17:19:22.455Z,2.87
2023-01-20T17:21:54.697Z,2.87
2023-01-20T17:24:25.321Z,2.87
2023-01-20T17:26:56.221Z,2.88
2023-01-20T17:29:26.572Z,2.90
2023-01-20T17:31:56.941Z,2.88
2023-01-20T17:34:30.062Z,2.85
2023-01-20T17:37:00.291Z,2.84
2023-01-20T17:39:30.539Z,2.87
2023-01-20T17:42:00.918Z,2.88
2023-01-20T17:44:31.349Z,2.93
2023-01-20T17:47:01.676Z,2.93
2023-01-20T17:49:37.650Z,2.95
2023-01-20T17:52:08.757Z,3.00
2023-01-20T17:54:39.246Z,2.99
2023-01-20T17:57:10.449Z,3.03
2023-01-20T17:59:40.922Z,3.06
2023-01-20T18:02:14.730Z,3.08
2023-01-20T18:04:47.781Z,3.04
2023-01-20T18:07:18.111Z,3.03
2023-01-20T18:09:48.450Z,3.04
2023-01-20T18:12:18.896Z,3.03
2023-01-20T18:14:49.177Z,3.03
2023-01-20T18:17:19.500Z,2.96
2023-01-20T18:19:52.455Z,2.89
2023-01-20T18:22:22.834Z,2.86
2023-01-20T18:24:53.314Z,2.77
2023-01-20T18:27:23.791Z,2.79
2023-01-20T18:29:54.249Z,2.87
2023-01-20T18:32:24.502Z,2.87
2023-01-20T18:34:57.497Z,2.88
2023-01-20T18:37:27.956Z,2.92
2023-01-20T18:39:58.270Z,2.95
2023-01-20T18:42:28.932Z,2.93
2023-01-20T18:44:59.289Z,2.86
2023-01-20T18:47:29.570Z,2.84
2023-01-20T18:50:02.466Z,2.79
2023-01-20T18:52:32.818Z,2.80
2023-01-20T18:55:03.125Z,2.83
2023-01-20T18:57:33.447Z,2.87
2023-01-20T19:00:03.763Z,2.88
2023-01-20T19:02:34.508Z,2.93
2023-01-20T19:05:08.626Z,2.97
2023-01-20T19:07:38.915Z,2.94
2023-01-20T19:10:10.072Z,2.92
2023-01-20T19:12:40.536Z,2.89
2023-01-20T19:15:12.773Z,2.87
2023-01-20T19:17:43.043Z,2.89
2023-01-20T19:20:16.810Z,2.92
2023-01-20T19:22:47.189Z,2.97
2023-01-20T19:25:17.701Z,3.00
2023-01-20T19:27:48.161Z,3.02
2023-01-20T19:30:21.039Z,3.04
2023-01-20T19:32:51.293Z,3.07
2023-01-20T19:35:24.343Z,3.05
2023-01-20T19:37:54.601Z,3.06
2023-01-20T19:40:25.077Z,3.04
2023-01-20T19:42:55.427Z,3.03
2023-01-20T19:45:36.726Z,3.03
2023-01-20T19:48:15.063Z,3.05
2023-01-20T19:50:47.989Z,3.03
2023-01-20T19:53:18.394Z,3.05
2023-01-20T19:55:49.265Z,3.12
2023-01-20T19:58:19.684Z,3.10
2023-01-20T20:00:50.136Z,3.06
2023-01-20T20:03:20.782Z,3.02
2023-01-20T20:05:53.733Z,3.01
2023-01-20T20:08:25.334Z,3.03
2023-01-20T20:10:55.815Z,3.00
2023-01-20T20:13:26.413Z,3.00
2023-01-20T20:16:04.200Z,3.02
2023-01-20T20:18:35.072Z,3.05
2023-01-20T20:21:08.695Z,3.05
2023-01-20T20:23:38.996Z,3.08
2023-01-20T20:26:09.386Z,3.09
2023-01-20T20:28:39.715Z,3.12
2023-01-20T20:31:12.240Z,3.09
2023-01-20T20:33:42.821Z,3.10
2023-01-20T20:36:16.395Z,3.11
2023-01-20T20:38:51.331Z,3.08
2023-01-20T20:41:22.434Z,3.09
2023-01-20T20:43:52.887Z,3.08
2023-01-20T20:46:23.944Z,3.09
2023-01-20T20:48:59.334Z,3.09
2023-01-20T20:51:34.498Z,3.03
2023-01-20T20:54:06.136Z,2.97
2023-01-20T20:56:37.071Z,2.87
2023-01-20T20:59:07.546Z,2.81
2023-01-20T21:01:38.074Z,2.84
2023-01-20T21:04:09.395Z,2.82
2023-01-20T21:06:42.351Z,2.90
2023-01-20T21:09:13.159Z,2.91
2023-01-20T21:11:43.590Z,2.93
2023-01-20T21:14:13.939Z,2.93
2023-01-20T21:16:44.458Z,2.91
2023-01-20T21:19:14.728Z,2.94
2023-01-20T21:21:47.728Z,2.91
2023-01-20T21:24:18.134Z,2.86
2023-01-20T21:26:48.430Z,2.86
2023-01-20T21:29:18.833Z,2.83
2023-01-20T21:31:50.519Z,2.83
2023-01-20T21:34:20.904Z,2.85
2023-01-20T21:36:53.882Z,2.88
2023-01-20T21:39:24.230Z,2.85
2023-01-20T21:41:54.575Z,2.86
2023-01-20T21:44:33.159Z,2.88
2023-01-20T21:47:05.847Z,2.87
2023-01-20T21:49:48.594Z,2.87
2023-01-20T21:52:37.219Z,2.88
2023-01-20T21:55:10.743Z,2.91
2023-01-20T21:57:41.614Z,2.90
2023-01-20T22:00:14.995Z,2.93
2023-01-20T22:02:47.602Z,2.89
2023-01-20T22:05:18.400Z,2.91
2023-01-20T22:07:51.422Z,2.95
2023-01-20T22:10:21.993Z,2.93
2023-01-20T22:12:52.340Z,2.93
2023-01-20T22:15:22.669Z,2.94
2023-01-20T22:17:52.938Z,2.95
2023-01-20T22:20:25.264Z,2.94
2023-01-20T22:22:58.270Z,2.94
2023-01-20T22:25:28.866Z,2.93
2023-01-20T22:27:59.415Z,2.92
2023-01-20T22:30:30.059Z,2.96
2023-01-20T22:33:00.472Z,2.96
2023-01-20T22:35:30.786Z,2.95
2023-01-20T22:38:03.831Z,2.94
2023-01-20T22:40:34.371Z,2.91
2023-01-20T22:43:04.986Z,2.89
2023-01-20T22:45:35.427Z,2.86
2023-01-20T22:48:05.919Z,2.85
2023-01-20T22:50:36.868Z,2.83
2023-01-20T22:53:09.883Z,2.85
2023-01-20T22:55:49.011Z,2.85
2023-01-20T22:58:30.185Z,2.85
2023-01-20T23:01:00.661Z,2.82
2023-01-20T23:03:31.311Z,2.82
2023-01-20T23:06:03.107Z,2.81
2023-01-20T23:08:36.465Z,2.77
2023-01-20T23:11:09.642Z,2.76
2023-01-20T23:13:40.492Z,2.71
2023-01-20T23:16:16.668Z,2.76
2023-01-20T23:18:47.226Z,2.72
2023-01-20T23:21:18.629Z,2.74
2023-01-20T23:23:55.151Z,2.70
2023-01-20T23:26:27.777Z,2.66
2023-01-20T23:28:59.517Z,2.59
2023-01-20T23:31:33.628Z,2.56
2023-01-20T23:34:04.091Z,2.54
2023-01-20T23:36:34.470Z,2.54
2023-01-20T23:39:07.405Z,2.52
2023-01-20T23:41:37.623Z,2.48
2023-01-20T23:44:08.426Z,2.46
2023-01-20T23:46:38.807Z,2.45
2023-01-20T23:49:09.100Z,2.43
2023-01-20T23:51:39.628Z,2.42
2023-01-20T23:54:14.488Z,2.35
2023-01-20T23:56:44.758Z,2.36
2023-01-20T23:59:15.220Z,2.38
